Eduardo Castillo

Olheiro-Chefe - Independiente
17 Jul 2027
Sábado
Processo

Personalidade

Adaptabilidade (5) Ambição (9) Controvérsia (7) Lealdade (6) Pressão (1) Profissionalismo (7) Espírito Esportivo (8) Temperamento (19)

Perfil

Estilo de Treinamento Democrático
Licença Continental A
Determinação 14
Gestão de Pessoas 8
Motivação 11
Disciplina 7
Satisfação no Trabalho
100%
Fadiga
0%
Função Olheiro-Chefe
Salário 86.3K p/s
Contrato 14.03.2028

Desempenho

Comportamento Bom
Eficácia do Treinamento
45%
Desenvolvimento do Jogador
50%
Prevenção de Lesões
25%
Implementação Tática
45%

Eventos Recentes

Participou de uma reunião de recrutamento agora
Recomendou um alvo de transferência agora
Participou de uma reunião de recrutamento 7d atrás
Recomendou um alvo de transferência 7d atrás
Recomendou um alvo de transferência 7d atrás
Participou de uma reunião de recrutamento 7d atrás
Recomendou um alvo de transferência 14d atrás
Participou de uma reunião de recrutamento 14d atrás

Monitorando agora

150
Jogador Clube Status Habilidade Confiança Observado Última observação Último voto
Juan Brunetta Torino Ativo 136 / 139 40% 5 28.06.2027 -
Solly March Brighton Ativo 148 / 153 40% 3 28.06.2027 -
Thiago Almada Fiorentina Ativo 146 / 153 40% 1 28.06.2027 -
Brooke Norton-Cuffy Hull City Perdido 133 / 133 40% 8 14.06.2027 -
Nahuel Molina AS Roma Perdido 142 / 141 40% 4 14.06.2027 -
Guille Rosas Gijón Perdido 135 / 141 40% 2 14.06.2027 -
Luis Ángel Díaz Independiente Rivadavia Ativo 117 / 127 79% 1 02.06.2027 Aprovar
Konstantin Tyukavin Arsenal Negociando 132 / 133 66% 1 01.06.2027 Aprovar
Mateo Pellegrino Fiorentina Ativo 145 / 136 40% 1 31.05.2027 -
Santiago Castro AS Roma Ativo 153 / 154 40% 1 31.05.2027 -
Dávid Strelec Middlesbrough Ativo 134 / 140 40% 1 31.05.2027 -
Óscar Mingueza Crystal Palace Ativo 156 / 145 40% 7 28.05.2027 -
Ramón Terrats Getafe Perdido 144 / 146 40% 8 27.05.2027 -
Tino Livramento Newcastle United Ativo 156 / 157 40% 9 27.05.2027 -
Enzo Barrenechea Burnley Ativo 151 / 147 40% 6 27.05.2027 -
Tyrell Malacia Derby County Ativo 143 / 134 40% 12 26.05.2027 -
Tim Iroegbunam Hull City Ativo 135 / 133 40% 2 26.05.2027 -
Milan van Ewijk Coventry City Ativo 135 / 127 40% 4 26.05.2027 -
Jacob Greaves Ipswich Town Ativo 142 / 140 40% 11 24.05.2027 -
Harry Clarke Preston Ativo 123 / 130 40% 5 23.05.2027 -
Saša Lukić Ipswich Town Ativo 145 / 139 40% 8 23.05.2027 -
James Garner Everton Ativo 154 / 145 40% 7 23.05.2027 -
Alex Scott Bournemouth Ativo 155 / 150 40% 7 22.05.2027 -
Boubacar Kamara Aston Villa Ativo 167 / 160 40% 8 21.05.2027 -
Lewis O'Brien Wrexham Ativo 121 / 120 40% 1 19.05.2027 -
Max Bird Birmingham Ativo 138 / 132 40% 4 18.05.2027 -
Nico González Newcastle United Ativo 157 / 162 40% 7 12.05.2027 -
Yehor Yarmoliuk Brentford Ativo 143 / 143 40% 2 12.05.2027 -
Ethan Galbraith Swansea City Ativo 133 / 130 40% 11 11.05.2027 -
Leon Goretzka Aston Villa Ativo 158 / 151 40% 4 11.05.2027 -
Adrien Truffert Bournemouth Ativo 157 / 155 40% 1 10.05.2027 Mais informações
Welington Southampton Ativo 137 / 133 40% 7 09.05.2027 -
Isma Ruiz Córdoba Ativo 129 / 126 40% 8 06.05.2027 -
Max Johnston Derby County Ativo 131 / 121 40% 5 02.05.2027 -
Ryan Sessegnon Fulham Ativo 151 / 142 40% 2 02.05.2027 -
Igor Burnley Ativo 141 / 144 40% 2 01.05.2027 -
Nordi Mukiele Sunderland Ativo 149 / 148 40% 7 29.04.2027 -
Quinten Timber Crystal Palace Ativo 150 / 147 40% 3 28.04.2027 -
Daniel Muñoz Nottingham Forest Ativo 151 / 152 40% 6 26.04.2027 -
Federico Gattoni Ascoli Ativo 136 / 127 40% 7 25.04.2027 -
Stephen Eustáquio Swansea City Ativo 129 / 140 40% 1 18.04.2027 -
Tyler Adams Bournemouth Ativo 158 / 152 40% 4 15.04.2027 -
Nathan Collins Brentford Ativo 143 / 144 40% 3 14.04.2027 -
Kenny Tete Fulham Ativo 144 / 146 40% 5 05.04.2027 -
Xaver Schlager Nottingham Forest Ativo 156 / 147 40% 6 30.03.2027 -
Matty Cash Aston Villa Ativo 152 / 158 40% 1 25.03.2027 -
Amadou Onana Newcastle United Ativo 153 / 158 40% 2 22.03.2027 -
Jordan Lotomba Bloemfontein Celtic Ativo 118 / 118 40% 6 21.03.2027 -
André Wolverhampton Ativo 151 / 140 40% 1 20.03.2027 -
Ainsley Maitland-Niles Everton Ativo 132 / 138 40% 2 16.03.2027 -
Shea Charles Southampton Ativo 127 / 141 40% 2 07.03.2027 -
Olivier Boscagli Brighton Ativo 143 / 149 40% 1 03.03.2027 -
Christian Krasnodar Ativo 137 / 137 40% 4 20.02.2027 -
Juanlu Bournemouth Ativo 141 / 144 40% 1 19.02.2027 -
Sven Botman Newcastle United Ativo 152 / 151 40% 1 17.02.2027 -
Tariq Lamptey Queens Park Rangers Ativo 135 / 129 40% 2 04.02.2027 -
Mathías Olivera Cesena Ativo 143 / 148 40% 2 28.01.2027 -
Valentín Barco Chelsea Ativo 137 / 142 40% 1 27.01.2027 -
Sergej Milinković-Savić Al-Hilal Ativo 160 / 155 40% 1 25.01.2027 -
Florentino Luís Ipswich Town Ativo 145 / 143 40% 1 24.01.2027 -
Hakan Çalhanoğlu Inter Ativo 156 / 167 40% 1 24.01.2027 -
Pau Torres Aston Villa Ativo 159 / 154 40% 1 20.01.2027 -
Musab Al-Juwayr Al-Qadisiyah Ativo 125 / 124 40% 1 16.01.2027 -
Nino Zenit Ativo 148 / 145 40% 1 15.01.2027 -
Facundo Mura Inter Miami CF Ativo 124 / 122 40% 2 14.01.2027 -
Rubens Dinamo Moscow Ativo 133 / 133 40% 1 12.01.2027 -
Luke McNally Bristol City Ativo 122 / 135 40% 1 10.01.2027 -
Agustín Bouzat Houston Dynamo Ativo 133 / 131 40% 1 10.01.2027 -
Szabolcs Szoboszlai Haladas Ativo 139 / 136 40% 1 08.01.2027 -
Joaquín Pereyra Minnesota United FC Ativo 136 / 126 40% 1 29.12.2026 -
Alan Velasco Boca Juniors Ativo 127 / 130 40% 1 26.12.2026 -
Santiago Pierotti Lecce Ativo 136 / 129 40% 1 26.12.2026 -
Marquinhos Spartak Moscow Ativo 131 / 129 40% 2 23.12.2026 -
Leon Bailey Olympiacos Ativo 138 / 145 40% 1 23.12.2026 -
Mojmír Chytil Hajduk Split Ativo 132 / 127 40% 5 14.12.2026 -
Esequiel Barco Spartak Moscow Ativo 142 / 142 40% 3 06.12.2026 -
Mauro Arambarri River Plate Ativo 154 / 154 40% 3 05.12.2026 -
Pablo Solari Spartak Moscow Ativo 129 / 125 40% 1 04.12.2026 -
Luka Jović AEK Ativo 136 / 141 40% 6 30.11.2026 -
Taty Castellanos West Ham United Ativo 145 / 147 40% 4 28.11.2026 -
Hwang Hee-Chan Wolverhampton Ativo 140 / 130 40% 3 28.11.2026 -
Bertrand Traoré Sunderland Ativo 133 / 129 40% 4 28.11.2026 -
Nemanja Radonjić Crvena Zvezda Ativo 127 / 137 40% 1 27.11.2026 -
Youssef En-Nesyri Al-Ittihad Ativo 139 / 135 40% 14 25.11.2026 Observar
Kostantis Tzolakis Hull City Ativo 138 / 136 40% 2 25.11.2026 -
Robin Roefs Sunderland Ativo 136 / 142 40% 1 25.11.2026 -
Diego Enríquez Sporting Cristal Ativo 125 / 129 40% 1 25.11.2026 -
Veljko Birmančević Ferencvaros Ativo 131 / 138 40% 1 25.11.2026 -
Tomáš Chorý Spartak Moscow Ativo 146 / 145 40% 10 19.11.2026 -
Troy Parrott Betis Ativo 139 / 132 40% 4 19.11.2026 -
Nacho Vidal Lechia Ativo 135 / 129 40% 1 17.11.2026 -
Leandro Trossard Besiktas Ativo 151 / 148 40% 8 15.11.2026 Observar
Lucas Torreira Galatasaray Ativo 144 / 145 40% 3 13.11.2026 Observar
Taiwo Awoniyi Coventry City Ativo 134 / 130 40% 1 13.11.2026 -
Marcelino Moreno Lanús Ativo 127 / 128 40% 1 13.11.2026 -
Petar Stanić Ludogorets Ativo 135 / 141 40% 1 12.11.2026 -
Ollie Watkins Al-Hilal Ativo 144 / 146 40% 11 10.11.2026 -
Nathan Trott Cardiff City Ativo 127 / 121 40% 2 09.11.2026 -
Carl Rushworth Coventry City Ativo 135 / 134 40% 4 09.11.2026 -
Oli McBurnie Hull City Ativo 132 / 138 40% 4 09.11.2026 -
Lautaro Amadé Defensa y Justicia Ativo 119 / 123 40% 1 09.11.2026 -
Ricardo Pepi Napoli Ativo 135 / 150 40% 2 07.11.2026 -
Tasos Douvikas Como Ativo 139 / 149 40% 1 06.11.2026 -
Hidemasa Morita Hull City Ativo 140 / 139 40% 1 05.11.2026 -
Yoane Wissa Newcastle United Ativo 150 / 145 40% 1 01.11.2026 -
Enzo Vázquez Central Norte Ativo 112 / 104 40% 1 01.11.2026 -
Williams Mahlangu SuperSport United Ativo 105 / 102 40% 1 01.11.2026 -
Malcom Al Jazira Ativo 151 / 148 40% 1 01.11.2026 -
Zakaria Aboukhlal Torino Ativo 132 / 136 40% 1 26.10.2026 -
Brais Méndez Columbus Crew Ativo 143 / 145 40% 3 23.10.2026 -
Marc Pubill Atlético Madrid Ativo 138 / 140 40% 1 23.10.2026 -
Igor Nikić Lech Ativo 116 / 122 40% 1 22.10.2026 -
Denis Bouanga Los Angeles Football Club Ativo 130 / 130 40% 4 19.10.2026 -
Emiliano Saliadarre Miramar Misiones Ativo 114 / 106 40% 1 19.10.2026 -
Tomás Chancalay Minnesota United FC Ativo 123 / 128 40% 1 19.10.2026 -
Alexey Batrakov Galatasaray Ativo 143 / 142 40% 8 16.10.2026 -
Kerem Aktürkoğlu Fenerbahce Ativo 135 / 130 40% 10 14.10.2026 -
Ritsu Doan Gamba Osaka Ativo 142 / 138 40% 2 11.10.2026 -
Wilson Isidor Sunderland Ativo 142 / 133 40% 1 06.10.2026 -
Karim Konaté Red Bull Salzburg Ativo 128 / 129 40% 3 05.10.2026 -
Federico Losas Chacarita Juniors Ativo 109 / 116 40% 3 04.10.2026 -
Armando Broja Burnley Ativo 135 / 138 40% 1 04.10.2026 -
Luciano Jachfe Nueva Chicago Ativo 114 / 120 40% 2 30.09.2026 -
Patrick Schulte Columbus Crew Ativo 118 / 123 40% 1 30.09.2026 -
Felipe Zenobio Tigre Ativo 129 / 121 40% 2 28.09.2026 -
Lucas Verza Olimpia Ativo 112 / 112 40% 1 28.09.2026 -
Jesús Angulo Tigres Ativo 137 / 132 40% 2 27.09.2026 -
Luca De La Torre Charlotte Football Club Ativo 126 / 132 40% 1 27.09.2026 -
Takuma Asano Sanfrecce Hiroshima Ativo 127 / 136 40% 3 23.09.2026 -
Carlos Álvarez Club America Ativo 144 / 137 40% 3 22.09.2026 -
Fernando Gorriarán Tigres Ativo 140 / 141 40% 3 19.09.2026 -
Luis Romo Tigres Ativo 140 / 142 40% 1 19.09.2026 -
Orbelín Pineda Monterrey Ativo 142 / 140 40% 3 16.09.2026 -
Tomoki Hayakawa Kashima Antlers Ativo 142 / 140 40% 1 13.09.2026 -
Steven Bergwijn Al-Ittihad Ativo 151 / 143 40% 5 09.09.2026 -
Breel Embolo Atlanta United FC Ativo 130 / 130 40% 2 04.09.2026 -
Martín Ojeda Orlando City Ativo 129 / 130 40% 1 01.09.2026 -
Cristian Espinoza Nashville SC Ativo 136 / 124 40% 1 01.09.2026 -
Alexis Vega Famalicao Ativo 137 / 137 40% 4 17.08.2026 -
Alan Varela Porto Ativo 138 / 150 40% 2 16.08.2026 -
Jonathan Bamba Chicago Fire Ativo 133 / 133 40% 1 15.08.2026 -
Matt Freese New York City Ativo 129 / 135 40% 1 14.08.2026 -
Carlos Rodríguez Cruz Azul Ativo 131 / 140 40% 1 10.08.2026 -
Dodi Lukébakio Benfica Ativo 139 / 136 40% 1 06.08.2026 -
Juan Martín Rojas Morón Ativo 115 / 108 40% 1 05.08.2026 -
Mads Hermansen West Ham United Ativo 127 / 134 40% 1 05.08.2026 -
Uriel Antuna Pumas UNAM Ativo 127 / 124 40% 1 05.08.2026 -
Nicolás Romero Minnesota United FC Ativo 129 / 127 40% 1 01.08.2026 -
Sergi Cardona Villarreal Ativo 149 / 144 40% 1 01.08.2026 -
Omar El Hilali Espanyol Ativo 137 / 150 40% 1 01.08.2026 -